createdAt,value
2022-12-22T00:01:17.355Z,5.05
2022-12-22T00:06:40.181Z,5.90
2022-12-22T00:12:02.895Z,4.75
2022-12-22T00:17:43.642Z,5.45
2022-12-22T00:23:06.161Z,5.85
2022-12-22T00:28:33.851Z,6.35
2022-12-22T00:33:54.810Z,5.13
2022-12-22T00:39:17.348Z,5.13
2022-12-22T00:44:38.283Z,4.22
2022-12-22T00:50:05.393Z,5.72
2022-12-22T00:55:37.637Z,6.70
2022-12-22T01:00:58.839Z,6.18
2022-12-22T01:06:22.108Z,5.68
2022-12-22T01:11:46.242Z,5.45
2022-12-22T01:17:07.500Z,6.88
2022-12-22T01:22:31.060Z,4.05
2022-12-22T01:27:53.538Z,5.22
2022-12-22T01:33:14.736Z,7.45
2022-12-22T01:38:36.262Z,4.65
2022-12-22T01:43:59.095Z,5.72
2022-12-22T01:49:20.155Z,6.43
2022-12-22T01:54:41.271Z,5.63
2022-12-22T02:00:04.379Z,5.22
2022-12-22T02:05:35.636Z,5.82
2022-12-22T02:11:21.467Z,4.40
2022-12-22T02:16:52.978Z,4.53
2022-12-22T02:22:28.715Z,6.13
2022-12-22T02:27:53.682Z,3.70
2022-12-22T02:33:14.709Z,6.32
2022-12-22T02:38:45.578Z,5.00
2022-12-22T02:44:34.975Z,5.43
2022-12-22T02:50:02.378Z,3.72
2022-12-22T02:55:25.605Z,4.53
2022-12-22T03:00:48.256Z,5.53
2022-12-22T03:06:09.334Z,4.38
2022-12-22T03:11:30.423Z,5.18
2022-12-22T03:16:53.167Z,6.88
2022-12-22T03:22:14.199Z,5.00
2022-12-22T03:27:17.812Z,4.40
2022-12-22T03:32:23.042Z,3.90
2022-12-22T03:37:26.769Z,4.25
2022-12-22T03:42:48.071Z,5.55
2022-12-22T03:47:53.013Z,3.90
2022-12-22T03:52:56.537Z,5.03
2022-12-22T03:58:00.114Z,5.18
2022-12-22T04:03:05.454Z,4.57
2022-12-22T04:08:09.158Z,4.95
2022-12-22T04:13:12.891Z,4.97
2022-12-22T04:18:17.908Z,4.75
2022-12-22T04:23:21.487Z,5.25
2022-12-22T04:28:25.146Z,4.03
2022-12-22T04:33:30.228Z,5.05
2022-12-22T04:38:33.954Z,4.55
2022-12-22T04:43:38.404Z,3.47
2022-12-22T04:48:43.795Z,3.70
2022-12-22T04:53:47.407Z,3.40
2022-12-22T04:58:51.102Z,6.03
2022-12-22T05:03:56.061Z,3.72
2022-12-22T05:08:59.724Z,4.10
2022-12-22T05:14:07.168Z,5.63
2022-12-22T05:24:16.195Z,3.88
2022-12-22T05:29:19.960Z,4.53
2022-12-22T05:34:24.862Z,4.57
2022-12-22T05:39:28.484Z,5.65
2022-12-22T05:44:32.157Z,3.85
2022-12-22T05:49:37.208Z,4.15
2022-12-22T05:54:40.941Z,4.40
2022-12-22T05:59:45.763Z,3.67
2022-12-22T06:04:50.696Z,2.78
2022-12-22T06:09:55.092Z,4.30
2022-12-22T06:14:58.701Z,3.63
2022-12-22T06:20:03.740Z,4.60
2022-12-22T06:25:10.930Z,3.35
2022-12-22T06:30:19.326Z,2.90
2022-12-22T06:35:24.284Z,2.65
2022-12-22T06:40:27.863Z,3.13
2022-12-22T06:45:31.412Z,2.78
2022-12-22T06:50:37.046Z,2.47
2022-12-22T06:55:40.982Z,2.67
2022-12-22T07:00:48.562Z,2.75
2022-12-22T07:05:53.602Z,2.65
2022-12-22T07:11:00.180Z,5.28
2022-12-22T07:16:07.364Z,3.28
2022-12-22T07:21:15.237Z,2.63
2022-12-22T07:26:18.838Z,4.22
2022-12-22T07:31:22.484Z,3.75
2022-12-22T07:36:27.543Z,3.88
2022-12-22T07:41:47.863Z,3.33
2022-12-22T07:46:52.087Z,4.55
2022-12-22T07:51:58.647Z,3.55
2022-12-22T07:57:02.220Z,4.57
2022-12-22T08:02:05.916Z,4.97
2022-12-22T08:07:11.091Z,4.43
2022-12-22T08:12:14.879Z,3.35
2022-12-22T08:17:18.828Z,1.52
2022-12-22T08:22:25.038Z,4.30
2022-12-22T08:27:38.364Z,4.95
2022-12-22T08:32:43.473Z,4.72
2022-12-22T08:37:49.801Z,4.25
2022-12-22T08:42:59.312Z,2.35
2022-12-22T08:48:02.911Z,2.33
2022-12-22T08:53:29.757Z,3.97
2022-12-22T08:58:34.803Z,1.98
2022-12-22T09:03:38.582Z,3.28
2022-12-22T09:08:43.678Z,3.17
2022-12-22T09:13:47.250Z,6.68
2022-12-22T09:18:51.480Z,19.75
2022-12-22T09:23:58.356Z,8.10
2022-12-22T09:29:02.343Z,8.33
2022-12-22T09:34:06.008Z,7.45
2022-12-22T09:39:12.072Z,8.65
2022-12-22T09:44:25.774Z,11.77
2022-12-22T09:49:30.171Z,8.70
2022-12-22T09:54:35.263Z,10.35
2022-12-22T09:59:38.997Z,7.63
2022-12-22T10:05:16.423Z,8.15
2022-12-22T10:10:28.232Z,8.63
2022-12-22T10:15:38.969Z,7.90
2022-12-22T10:20:46.193Z,6.85
2022-12-22T10:26:29.553Z,7.07
2022-12-22T10:31:36.289Z,9.02
2022-12-22T10:36:41.277Z,8.45
2022-12-22T10:41:50.084Z,7.60
2022-12-22T10:46:56.656Z,21.38
2022-12-22T10:52:15.229Z,21.23
2022-12-22T10:57:31.821Z,171.70
2022-12-22T11:02:39.067Z,173.10
2022-12-22T11:07:47.021Z,158.27
2022-12-22T11:19:09.422Z,149.45
2022-12-22T11:24:31.185Z,142.63
2022-12-22T11:30:08.404Z,127.65
2022-12-22T11:35:24.451Z,115.15
2022-12-22T11:40:40.161Z,100.10
2022-12-22T11:46:06.298Z,88.72
2022-12-22T11:51:27.345Z,82.55
2022-12-22T11:56:40.052Z,70.85
2022-12-22T12:02:17.758Z,67.25
2022-12-22T12:12:48.406Z,57.63
2022-12-22T12:18:40.322Z,53.80
2022-12-22T12:24:34.933Z,52.85
2022-12-22T12:29:48.715Z,51.33
2022-12-22T12:35:15.022Z,47.97
2022-12-22T12:40:37.000Z,49.30
2022-12-22T12:45:43.887Z,47.08
2022-12-22T12:50:49.448Z,44.55
2022-12-22T12:56:07.516Z,41.65
2022-12-22T13:01:14.372Z,39.47
2022-12-22T13:06:54.411Z,39.40
2022-12-22T13:12:17.197Z,34.47
2022-12-22T13:17:42.769Z,35.85
2022-12-22T13:22:53.121Z,33.78
2022-12-22T13:27:59.071Z,29.65
2022-12-22T13:33:03.204Z,31.35
2022-12-22T13:38:13.217Z,28.73
2022-12-22T13:43:19.470Z,29.17
2022-12-22T13:48:31.147Z,30.88
2022-12-22T13:54:07.145Z,30.58
2022-12-22T13:59:06.687Z,25.25
2022-12-22T14:04:15.398Z,23.77
2022-12-22T14:09:23.745Z,24.48
2022-12-22T14:14:33.127Z,24.85
2022-12-22T14:19:38.852Z,25.80
2022-12-22T14:24:48.043Z,21.15
2022-12-22T14:29:52.944Z,21.70
2022-12-22T14:34:56.781Z,21.20
2022-12-22T14:40:01.932Z,19.67
2022-12-22T14:45:16.106Z,20.50
2022-12-22T14:50:22.319Z,20.08
2022-12-22T14:55:32.431Z,18.20
2022-12-22T15:00:39.339Z,22.08
2022-12-22T15:05:44.678Z,18.52
2022-12-22T15:10:49.841Z,18.10
2022-12-22T15:15:53.896Z,17.63
2022-12-22T15:20:58.959Z,16.60
2022-12-22T15:26:04.163Z,17.55
2022-12-22T15:31:16.366Z,16.25
2022-12-22T15:36:20.080Z,16.10
2022-12-22T15:41:25.207Z,16.25
2022-12-22T15:46:29.104Z,15.25
2022-12-22T15:51:33.633Z,16.02
2022-12-22T15:56:39.238Z,14.82
2022-12-22T16:01:43.172Z,15.30
2022-12-22T16:06:47.668Z,13.48
2022-12-22T16:11:52.823Z,16.60
2022-12-22T16:16:56.598Z,18.77
2022-12-22T16:22:00.390Z,21.10
2022-12-22T16:27:05.990Z,21.48
2022-12-22T16:32:19.319Z,19.15
2022-12-22T16:37:23.254Z,20.13
2022-12-22T16:47:53.753Z,45.83
2022-12-22T16:52:57.382Z,31.60
2022-12-22T16:58:12.780Z,39.58
2022-12-22T17:03:22.360Z,38.78
2022-12-22T17:08:31.345Z,39.13
2022-12-22T17:13:37.253Z,34.05
2022-12-22T17:18:41.003Z,29.65
2022-12-22T17:23:48.916Z,33.28
2022-12-22T17:33:58.918Z,30.02
2022-12-22T17:39:03.833Z,23.38
2022-12-22T17:44:22.545Z,25.88
2022-12-22T17:49:26.390Z,23.13
2022-12-22T17:54:30.242Z,26.20
2022-12-22T17:59:35.388Z,23.20
2022-12-22T18:04:39.345Z,24.23
2022-12-22T18:09:44.185Z,20.10
2022-12-22T18:14:50.337Z,17.25
2022-12-22T18:19:54.737Z,18.20
2022-12-22T18:24:58.956Z,16.50
2022-12-22T18:30:18.605Z,15.93
2022-12-22T18:35:27.597Z,12.45
2022-12-22T18:40:35.100Z,13.25
2022-12-22T18:45:40.135Z,13.77
2022-12-22T18:50:44.426Z,15.65
2022-12-22T18:55:48.439Z,14.43
2022-12-22T19:00:55.504Z,11.60
2022-12-22T19:05:59.689Z,12.87
2022-12-22T19:11:08.366Z,10.43
2022-12-22T19:16:16.357Z,10.70
2022-12-22T19:21:21.037Z,11.10
2022-12-22T19:26:27.737Z,10.02
2022-12-22T19:31:35.448Z,10.90
2022-12-22T19:41:47.205Z,9.40
2022-12-22T19:46:54.261Z,10.02
2022-12-22T19:51:58.664Z,8.13
2022-12-22T19:57:02.750Z,11.27
2022-12-22T20:02:27.258Z,9.43
2022-12-22T20:07:36.932Z,8.68
2022-12-22T20:12:45.333Z,10.63
2022-12-22T20:17:53.642Z,10.40
2022-12-22T20:23:03.587Z,8.82
2022-12-22T20:28:19.806Z,8.70
2022-12-22T20:33:28.324Z,9.45
2022-12-22T20:38:37.335Z,10.10
2022-12-22T20:43:41.939Z,8.65
2022-12-22T20:48:51.935Z,9.63
2022-12-22T20:53:57.251Z,7.82
2022-12-22T20:59:11.648Z,9.60
2022-12-22T21:04:18.528Z,9.15
2022-12-22T21:09:23.356Z,8.57
2022-12-22T21:14:27.002Z,7.13
2022-12-22T21:19:31.987Z,8.00
2022-12-22T21:24:35.647Z,7.47
2022-12-22T21:29:39.323Z,9.68
2022-12-22T21:34:44.635Z,8.10
2022-12-22T21:39:49.250Z,7.95
2022-12-22T21:44:52.876Z,7.20
2022-12-22T21:49:57.875Z,8.32
2022-12-22T21:55:01.583Z,8.20
2022-12-22T22:00:08.319Z,6.50
2022-12-22T22:05:26.334Z,7.32
2022-12-22T22:10:34.257Z,7.03
2022-12-22T22:15:39.081Z,6.82
2022-12-22T22:20:44.617Z,8.13
2022-12-22T22:25:48.280Z,7.82
2022-12-22T22:30:51.988Z,6.65
2022-12-22T22:36:00.739Z,7.13
2022-12-22T22:41:09.342Z,7.20
2022-12-22T22:46:12.955Z,8.27
2022-12-22T22:51:17.956Z,7.68
2022-12-22T22:56:21.639Z,7.22
2022-12-22T23:01:25.358Z,6.55
2022-12-22T23:06:30.417Z,7.00
2022-12-22T23:11:34.041Z,5.68
2022-12-22T23:16:38.995Z,8.35
2022-12-22T23:21:44.882Z,9.98
2022-12-22T23:26:49.585Z,8.18
2022-12-22T23:31:53.557Z,6.93
2022-12-22T23:36:58.825Z,7.25
2022-12-22T23:42:02.511Z,8.73
2022-12-22T23:47:07.071Z,8.07
2022-12-22T23:52:12.321Z,7.13
2022-12-22T23:57:16.029Z,8.48
